Time;durP1;ratioP1;P1;durP2;ratioP2;P2;SDS_P1;SDS_P2;PMS_P1;PMS_P2;Temp;Humidity;BMP_temperature;BMP_pressure;BME280_temperature;BME280_humidity;BME280_pressure;Samples;Min_cycle;Max_cycle;Signal;HPM_P1;HPM_P2
2021/07/14 00:00:25;;;;;;;13.40;10.85;;;;;;;;;;6126748;23;20002;-71
2021/07/14 00:02:51;;;;;;;10.90;9.80;;;;;;;;;;6126697;23;20160;-71
2021/07/14 00:05:19;;;;;;;10.38;9.43;;;;;;;;;;6126243;23;20009;-68
2021/07/14 00:07:46;;;;;;;10.88;9.88;;;;;;;;;;6126807;23;19998;-68
2021/07/14 00:10:13;;;;;;;12.63;10.43;;;;;;;;;;6101252;23;20124;-68
2021/07/14 00:23:32;;;;;;;10.27;9.27;;;;;;;;;;6126404;23;20096;-68
2021/07/14 00:25:57;;;;;;;12.95;9.95;;;;;;;;;;6126293;23;20037;-68
2021/07/14 00:28:24;;;;;;;14.05;10.40;;;;;;;;;;6126684;23;20006;-68
2021/07/14 00:30:52;;;;;;;11.95;10.82;;;;;;;;;;6100394;23;20324;-68
2021/07/14 00:33:18;;;;;;;11.48;10.35;;;;;;;;;;6126326;23;20014;-68
2021/07/14 00:35:43;;;;;;;11.52;10.20;;;;;;;;;;6124770;23;20053;-68
2021/07/14 00:38:10;;;;;;;11.00;9.77;;;;;;;;;;6126277;23;20002;-68
2021/07/14 00:40:35;;;;;;;10.30;9.30;;;;;;;;;;6100445;23;20002;-68
2021/07/14 00:43:00;;;;;;;12.98;10.65;;;;;;;;;;6100501;23;20052;-68
2021/07/14 00:45:26;;;;;;;14.60;10.85;;;;;;;;;;6126485;23;20002;-68
2021/07/14 00:47:56;;;;;;;15.00;10.27;;;;;;;;;;6126447;23;20029;-68
2021/07/14 00:50:21;;;;;;;11.75;10.57;;;;;;;;;;6126313;23;20008;-68
2021/07/14 00:52:47;;;;;;;11.65;10.45;;;;;;;;;;6126460;23;20081;-68
2021/07/14 00:55:12;;;;;;;12.00;10.88;;;;;;;;;;6100330;23;20319;-68
2021/07/14 00:57:38;;;;;;;12.27;10.95;;;;;;;;;;6125751;23;20017;-68
2021/07/14 01:00:04;;;;;;;11.00;9.85;;;;;;;;;;6126273;23;20098;-68
2021/07/14 01:02:30;;;;;;;10.52;9.55;;;;;;;;;;6126270;23;20006;-68
2021/07/14 01:05:08;;;;;;;13.52;9.98;;;;;;;;;;6126676;23;20002;-68
2021/07/14 01:07:54;;;;;;;11.55;10.32;;;;;;;;;;6126462;23;20006;-68
2021/07/14 01:10:30;;;;;;;12.20;10.35;;;;;;;;;;6126239;23;20018;-68
2021/07/14 01:13:06;;;;;;;10.32;9.30;;;;;;;;;;6126225;23;20065;-68
2021/07/14 01:15:43;;;;;;;11.43;10.20;;;;;;;;;;6101771;23;20456;-68
2021/07/14 01:18:11;;;;;;;11.80;10.60;;;;;;;;;;6128272;23;20002;-68
2021/07/14 01:20:43;;;;;;;11.80;10.65;;;;;;;;;;6128336;23;20028;-68
2021/07/14 01:23:16;;;;;;;10.02;9.07;;;;;;;;;;6127786;23;20010;-68
2021/07/14 01:25:57;;;;;;;11.35;10.23;;;;;;;;;;6128646;23;20449;-68
2021/07/14 01:28:25;;;;;;;11.80;10.63;;;;;;;;;;6128040;23;20338;-68
2021/07/14 01:30:51;;;;;;;11.88;10.70;;;;;;;;;;6128058;23;19998;-68
2021/07/14 01:33:20;;;;;;;11.68;10.43;;;;;;;;;;6127797;23;20010;-68
2021/07/14 01:35:46;;;;;;;14.07;10.95;;;;;;;;;;6127896;23;20017;-67
2021/07/14 01:38:13;;;;;;;11.32;10.23;;;;;;;;;;6126346;23;20311;-67
2021/07/14 01:40:40;;;;;;;10.77;8.90;;;;;;;;;;6128166;23;19994;-68
2021/07/14 01:43:06;;;;;;;10.15;9.23;;;;;;;;;;6101782;23;20025;-68
2021/07/14 01:45:33;;;;;;;11.43;9.40;;;;;;;;;;6127695;23;20484;-67
2021/07/14 01:48:00;;;;;;;12.70;9.55;;;;;;;;;;6127918;23;20036;-67
2021/07/14 01:50:27;;;;;;;11.07;9.80;;;;;;;;;;6127914;23;20005;-67
2021/07/14 01:52:53;;;;;;;13.15;10.32;;;;;;;;;;6127690;23;20452;-67
2021/07/14 01:55:21;;;;;;;12.88;9.57;;;;;;;;;;6128179;23;19998;-67
2021/07/14 01:57:47;;;;;;;11.82;10.70;;;;;;;;;;6127001;23;20442;-68
2021/07/14 02:00:12;;;;;;;11.45;10.25;;;;;;;;;;6127894;23;20013;-68
2021/07/14 02:02:48;;;;;;;10.73;9.65;;;;;;;;;;6127498;23;20461;-68
2021/07/14 02:05:14;;;;;;;10.73;9.73;;;;;;;;;;6127886;23;20012;-68
2021/07/14 02:07:40;;;;;;;12.65;10.07;;;;;;;;;;6127586;23;20423;-68
2021/07/14 02:10:06;;;;;;;11.57;10.15;;;;;;;;;;6127588;23;20448;-68
2021/07/14 02:12:31;;;;;;;10.25;9.13;;;;;;;;;;6125828;23;20467;-66
2021/07/14 02:14:59;;;;;;;10.88;9.63;;;;;;;;;;6127848;23;20053;-67
2021/07/14 02:17:26;;;;;;;10.25;9.20;;;;;;;;;;6101217;23;19994;-66
2021/07/14 02:19:59;;;;;;;11.30;9.55;;;;;;;;;;6127558;23;20017;-69
2021/07/14 02:22:26;;;;;;;11.70;10.32;;;;;;;;;;6127558;23;20013;-69
2021/07/14 02:24:52;;;;;;;12.30;10.57;;;;;;;;;;6126117;23;20010;-69
2021/07/14 02:27:18;;;;;;;12.88;10.98;;;;;;;;;;6127397;23;20331;-69
2021/07/14 02:29:44;;;;;;;11.80;10.55;;;;;;;;;;6127388;23;20331;-68
2021/07/14 02:32:12;;;;;;;10.65;9.20;;;;;;;;;;6127203;23;20002;-68
2021/07/14 02:34:38;;;;;;;9.82;8.82;;;;;;;;;;6101402;23;20088;-68
2021/07/14 02:37:05;;;;;;;10.88;9.70;;;;;;;;;;6127424;23;20032;-68
2021/07/14 02:39:31;;;;;;;10.32;9.32;;;;;;;;;;6127611;23;20005;-69
2021/07/14 02:42:03;;;;;;;13.13;10.35;;;;;;;;;;6101640;23;20013;-68
2021/07/14 02:44:34;;;;;;;11.98;10.23;;;;;;;;;;6125880;23;20017;-67
2021/07/14 02:47:00;;;;;;;10.63;9.40;;;;;;;;;;6127284;23;20434;-68
2021/07/14 02:49:29;;;;;;;11.88;10.50;;;;;;;;;;6127122;23;20093;-68
2021/07/14 02:51:55;;;;;;;11.20;9.52;;;;;;;;;;6127079;23;20009;-68
2021/07/14 02:54:26;;;;;;;11.18;10.10;;;;;;;;;;6127391;23;20037;-70
2021/07/14 02:56:59;;;;;;;14.27;10.23;;;;;;;;;;6126638;23;20367;-70
2021/07/14 02:59:27;;;;;;;12.68;10.38;;;;;;;;;;6127276;23;20006;-71
2021/07/14 03:01:55;;;;;;;14.10;9.00;;;;;;;;;;6127220;23;20100;-71
2021/07/14 03:04:23;;;;;;;11.02;8.93;;;;;;;;;;6125731;23;20080;-71
2021/07/14 03:06:49;;;;;;;11.48;9.68;;;;;;;;;;6127009;23;19998;-71
2021/07/14 03:09:15;;;;;;;11.48;9.80;;;;;;;;;;6127289;23;20371;-71
2021/07/14 03:11:42;;;;;;;11.27;10.18;;;;;;;;;;6126216;23;20437;-70
2021/07/14 03:14:09;;;;;;;11.02;9.88;;;;;;;;;;6125575;23;20010;-70
2021/07/14 03:16:35;;;;;;;13.82;10.40;;;;;;;;;;6126952;23;20326;-71
2021/07/14 03:19:01;;;;;;;15.05;10.00;;;;;;;;;;6126998;23;20002;-71
2021/07/14 03:21:28;;;;;;;12.52;9.68;;;;;;;;;;6125442;23;19998;-70
2021/07/14 03:23:54;;;;;;;13.88;9.82;;;;;;;;;;6127258;23;20330;-70
2021/07/14 03:26:20;;;;;;;16.17;10.70;;;;;;;;;;6127186;23;20077;-70
2021/07/14 03:28:46;;;;;;;17.00;10.57;;;;;;;;;;6127145;23;20076;-70
2021/07/14 03:31:12;;;;;;;13.48;9.98;;;;;;;;;;6126937;23;20395;-71
2021/07/14 03:33:37;;;;;;;12.77;9.98;;;;;;;;;;6126665;23;20029;-71
2021/07/14 03:36:07;;;;;;;11.25;10.18;;;;;;;;;;6127021;23;20415;-71
2021/07/14 03:38:33;;;;;;;11.30;9.95;;;;;;;;;;6126670;23;20009;-72
2021/07/14 03:40:59;;;;;;;14.48;10.38;;;;;;;;;;6126384;23;19998;-71
2021/07/14 03:43:26;;;;;;;12.70;9.65;;;;;;;;;;6126833;23;20005;-70
2021/07/14 03:45:52;;;;;;;11.05;9.95;;;;;;;;;;6100818;23;20002;-70
2021/07/14 03:48:19;;;;;;;11.15;9.88;;;;;;;;;;6126797;23;20014;-68
2021/07/14 03:50:50;;;;;;;12.48;10.10;;;;;;;;;;6126419;23;20476;-67
2021/07/14 03:53:17;;;;;;;11.77;10.50;;;;;;;;;;6126263;23;20080;-68
2021/07/14 03:55:43;;;;;;;12.13;10.40;;;;;;;;;;6126825;23;19998;-68
2021/07/14 03:58:09;;;;;;;11.07;9.98;;;;;;;;;;6126387;23;20014;-67
2021/07/14 04:00:35;;;;;;;11.95;9.73;;;;;;;;;;6126490;23;20391;-67
2021/07/14 04:03:01;;;;;;;15.30;10.52;;;;;;;;;;6126463;23;20323;-67
2021/07/14 04:05:27;;;;;;;14.40;10.15;;;;;;;;;;6126734;23;19998;-67
2021/07/14 04:07:53;;;;;;;13.80;10.20;;;;;;;;;;6125963;23;20013;-67
2021/07/14 04:10:19;;;;;;;11.10;9.68;;;;;;;;;;6126702;23;20029;-67
2021/07/14 04:12:45;;;;;;;11.60;10.38;;;;;;;;;;6126296;23;20009;-68
2021/07/14 04:15:10;;;;;;;11.15;10.23;;;;;;;;;;6126552;23;20077;-67
2021/07/14 04:17:36;;;;;;;13.45;10.98;;;;;;;;;;6126582;23;20006;-67
2021/07/14 04:20:01;;;;;;;13.02;10.40;;;;;;;;;;6100471;23;20005;-67
2021/07/14 04:22:27;;;;;;;12.48;10.35;;;;;;;;;;6126372;23;20017;-67
2021/07/14 04:24:52;;;;;;;12.10;10.90;;;;;;;;;;6126082;23;20001;-67
2021/07/14 04:27:19;;;;;;;12.05;10.23;;;;;;;;;;6126376;23;20021;-67
2021/07/14 04:29:44;;;;;;;17.30;11.13;;;;;;;;;;6126535;23;20002;-67
2021/07/14 04:32:10;;;;;;;16.52;10.77;;;;;;;;;;6126372;23;20076;-67
2021/07/14 04:34:36;;;;;;;11.63;10.38;;;;;;;;;;6126646;23;20076;-67
2021/07/14 04:37:01;;;;;;;12.10;10.48;;;;;;;;;;6126623;23;20006;-67
2021/07/14 04:39:27;;;;;;;12.80;10.70;;;;;;;;;;6126247;23;19997;-68
2021/07/14 04:41:52;;;;;;;12.88;10.13;;;;;;;;;;6126216;23;20006;-67
2021/07/14 04:44:29;;;;;;;13.43;11.35;;;;;;;;;;6126423;23;19994;-67
2021/07/14 04:46:55;;;;;;;11.50;10.23;;;;;;;;;;6126593;23;20006;-68
2021/07/14 04:49:20;;;;;;;11.52;9.93;;;;;;;;;;6126496;23;20367;-67
2021/07/14 04:51:46;;;;;;;11.50;10.20;;;;;;;;;;6128156;23;20084;-67
2021/07/14 04:54:11;;;;;;;13.23;10.90;;;;;;;;;;6128495;23;19998;-67
2021/07/14 04:56:37;;;;;;;11.50;10.23;;;;;;;;;;6128162;23;20094;-67
2021/07/14 04:59:02;;;;;;;12.05;10.57;;;;;;;;;;6128310;23;20017;-67
2021/07/14 05:01:30;;;;;;;13.15;10.73;;;;;;;;;;6126973;23;20017;-68
2021/07/14 05:03:56;;;;;;;11.85;10.65;;;;;;;;;;6124827;23;20029;-67
2021/07/14 05:06:21;;;;;;;11.93;10.77;;;;;;;;;;6125097;23;20014;-67
2021/07/14 05:08:47;;;;;;;11.65;10.45;;;;;;;;;;6126706;23;20421;-67
2021/07/14 05:11:13;;;;;;;12.00;10.77;;;;;;;;;;6126633;23;20005;-67
2021/07/14 05:13:38;;;;;;;12.27;11.07;;;;;;;;;;6100654;23;20387;-67
2021/07/14 05:16:04;;;;;;;13.52;11.88;;;;;;;;;;6126633;23;20033;-68
2021/07/14 05:18:33;;;;;;;12.25;11.05;;;;;;;;;;6126594;23;20084;-67
2021/07/14 05:20:59;;;;;;;13.85;11.30;;;;;;;;;;6126558;23;20006;-67
2021/07/14 05:23:24;;;;;;;12.93;11.27;;;;;;;;;;6126653;23;20028;-67
2021/07/14 05:25:51;;;;;;;12.80;11.50;;;;;;;;;;6126485;23;20006;-68
2021/07/14 05:28:16;;;;;;;13.85;12.43;;;;;;;;;;6126405;23;20013;-69
2021/07/14 05:30:42;;;;;;;13.10;11.80;;;;;;;;;;6126566;23;20150;-68
2021/07/14 05:33:07;;;;;;;14.40;11.43;;;;;;;;;;6126268;23;19997;-68
2021/07/14 05:35:33;;;;;;;13.68;11.93;;;;;;;;;;6100558;23;20096;-68
2021/07/14 05:37:59;;;;;;;13.95;11.18;;;;;;;;;;6126622;23;20085;-68
2021/07/14 05:40:24;;;;;;;14.77;12.10;;;;;;;;;;6126391;23;20093;-70
2021/07/14 05:42:50;;;;;;;15.05;12.07;;;;;;;;;;6126325;23;20006;-71
2021/07/14 05:45:16;;;;;;;14.95;12.50;;;;;;;;;;6126908;23;20085;-71
2021/07/14 05:47:41;;;;;;;13.57;12.07;;;;;;;;;;6127767;23;20048;-73
2021/07/14 05:50:07;;;;;;;18.17;12.98;;;;;;;;;;6126302;23;20034;-72
2021/07/14 05:52:33;;;;;;;13.45;12.10;;;;;;;;;;6127842;23;20426;-71
2021/07/14 05:54:58;;;;;;;15.27;11.95;;;;;;;;;;6127810;23;20006;-71
2021/07/14 05:57:24;;;;;;;15.02;12.45;;;;;;;;;;6127301;23;20010;-71
2021/07/14 05:59:49;;;;;;;16.77;11.82;;;;;;;;;;6127452;23;20014;-71
2021/07/14 06:02:15;;;;;;;15.50;11.98;;;;;;;;;;6127154;23;20010;-71
2021/07/14 06:04:40;;;;;;;13.77;12.48;;;;;;;;;;6127904;23;20093;-71
2021/07/14 06:07:07;;;;;;;17.95;11.85;;;;;;;;;;6126218;23;19998;-71
2021/07/14 06:09:33;;;;;;;15.13;12.52;;;;;;;;;;6126119;23;20014;-71
2021/07/14 06:11:58;;;;;;;14.55;11.93;;;;;;;;;;6127384;23;20080;-71
2021/07/14 06:14:24;;;;;;;12.63;11.18;;;;;;;;;;6127673;23;20030;-71
2021/07/14 06:16:49;;;;;;;14.70;12.05;;;;;;;;;;6127738;23;20352;-71
2021/07/14 06:19:15;;;;;;;14.50;11.88;;;;;;;;;;6126224;23;20330;-71
2021/07/14 06:21:40;;;;;;;12.02;10.85;;;;;;;;;;6125895;23;19998;-71
2021/07/14 06:24:06;;;;;;;16.00;13.13;;;;;;;;;;6127340;23;20002;-71
2021/07/14 06:26:32;;;;;;;14.70;13.18;;;;;;;;;;6127396;23;19998;-71
2021/07/14 06:28:58;;;;;;;12.10;10.88;;;;;;;;;;6127726;23;20093;-71
2021/07/14 06:31:23;;;;;;;13.98;12.50;;;;;;;;;;6126155;23;20022;-71
2021/07/14 06:33:49;;;;;;;15.60;13.05;;;;;;;;;;6125876;23;20058;-71
2021/07/14 06:36:14;;;;;;;13.10;11.85;;;;;;;;;;6126003;23;20002;-71
2021/07/14 06:38:40;;;;;;;16.23;13.45;;;;;;;;;;6127418;23;20006;-71
2021/07/14 06:41:05;;;;;;;17.65;12.75;;;;;;;;;;6127356;23;19994;-71
2021/07/14 06:43:45;;;;;;;16.60;13.43;;;;;;;;;;6127227;23;20013;-71
2021/07/14 06:46:14;;;;;;;16.02;13.25;;;;;;;;;;6101570;23;20010;-71
2021/07/14 06:48:40;;;;;;;15.35;13.52;;;;;;;;;;6127297;23;20052;-70
2021/07/14 06:51:06;;;;;;;18.35;13.65;;;;;;;;;;6127348;23;20017;-71
2021/07/14 06:53:32;;;;;;;16.50;14.48;;;;;;;;;;6126673;23;20002;-71
2021/07/14 06:55:58;;;;;;;14.63;13.07;;;;;;;;;;6127226;23;20017;-72
2021/07/14 06:58:24;;;;;;;17.17;13.05;;;;;;;;;;6126950;23;20010;-71
2021/07/14 07:00:50;;;;;;;13.93;12.48;;;;;;;;;;6125603;23;20002;-72
2021/07/14 07:03:15;;;;;;;20.67;14.18;;;;;;;;;;6127072;23;20369;-72
2021/07/14 07:05:41;;;;;;;15.55;14.00;;;;;;;;;;6127026;23;20010;-72
2021/07/14 07:08:06;;;;;;;20.00;13.90;;;;;;;;;;6125548;23;20057;-72
2021/07/14 07:10:32;;;;;;;16.88;13.32;;;;;;;;;;6127047;23;20009;-71
2021/07/14 07:12:57;;;;;;;16.33;13.10;;;;;;;;;;6126741;23;20440;-71
2021/07/14 07:15:23;;;;;;;17.30;13.38;;;;;;;;;;6126923;23;20461;-71
2021/07/14 07:17:48;;;;;;;16.95;12.82;;;;;;;;;;6125480;23;20000;-71
2021/07/14 07:20:14;;;;;;;17.95;12.95;;;;;;;;;;6126351;23;20006;-72
2021/07/14 07:22:40;;;;;;;15.10;12.27;;;;;;;;;;6126768;23;20004;-71
2021/07/14 07:25:06;;;;;;;15.50;12.77;;;;;;;;;;6127161;23;20006;-71
2021/07/14 07:27:36;;;;;;;12.95;11.68;;;;;;;;;;6126917;23;20012;-71
2021/07/14 07:30:02;;;;;;;;;;;;;;;;;;6127407;23;20021;-71
2021/07/14 07:32:27;;;;;;;15.60;11.85;;;;;;;;;;6125252;23;20242;-71
2021/07/14 07:34:53;;;;;;;15.57;12.73;;;;;;;;;;6126667;23;20334;-71
2021/07/14 07:37:18;;;;;;;15.48;12.50;;;;;;;;;;6126690;23;19994;-71
2021/07/14 07:39:45;;;;;;;18.13;12.80;;;;;;;;;;6126544;23;20085;-72
2021/07/14 07:42:10;;;;;;;18.13;13.38;;;;;;;;;;6126811;23;19998;-72
2021/07/14 07:44:36;;;;;;;20.88;13.20;;;;;;;;;;6126779;23;20010;-72
2021/07/14 07:47:01;;;;;;;17.85;13.13;;;;;;;;;;6125289;23;20021;-72
2021/07/14 07:49:27;;;;;;;18.40;13.18;;;;;;;;;;6126146;23;20064;-71
2021/07/14 07:51:52;;;;;;;18.33;13.60;;;;;;;;;;6124967;23;20002;-72
2021/07/14 07:54:18;;;;;;;16.95;13.73;;;;;;;;;;6126502;23;20002;-72
2021/07/14 07:56:43;;;;;;;14.80;13.35;;;;;;;;;;6126212;23;20028;-71
2021/07/14 07:59:09;;;;;;;16.17;13.68;;;;;;;;;;6125294;23;20080;-71
2021/07/14 08:01:38;;;;;;;19.42;14.13;;;;;;;;;;6126641;23;20006;-71
2021/07/14 08:04:04;;;;;;;17.27;13.00;;;;;;;;;;6126620;23;20014;-72
2021/07/14 08:06:29;;;;;;;18.33;13.60;;;;;;;;;;6126670;23;20002;-72
2021/07/14 08:08:55;;;;;;;19.25;13.77;;;;;;;;;;6126458;23;20041;-72
2021/07/14 08:11:20;;;;;;;20.80;13.13;;;;;;;;;;6126473;23;20026;-71
2021/07/14 08:13:46;;;;;;;19.05;13.18;;;;;;;;;;6124914;23;20006;-72
2021/07/14 08:16:12;;;;;;;14.68;12.35;;;;;;;;;;6126560;23;20005;-72
2021/07/14 08:18:37;;;;;;;22.65;13.77;;;;;;;;;;6126195;23;20009;-72
2021/07/14 08:21:03;;;;;;;17.17;13.23;;;;;;;;;;6126349;23;20001;-72
2021/07/14 08:23:28;;;;;;;18.67;12.93;;;;;;;;;;6126295;23;20462;-71
2021/07/14 08:25:54;;;;;;;19.73;13.43;;;;;;;;;;6124355;23;20013;-71
2021/07/14 08:28:19;;;;;;;17.08;12.57;;;;;;;;;;6126405;23;20006;-72
2021/07/14 08:30:45;;;;;;;18.77;13.05;;;;;;;;;;6126502;23;20422;-72
2021/07/14 08:33:10;;;;;;;16.27;13.15;;;;;;;;;;6126333;23;20315;-72
2021/07/14 08:35:36;;;;;;;16.45;12.27;;;;;;;;;;6126465;23;20077;-72
2021/07/14 08:38:02;;;;;;;13.77;12.35;;;;;;;;;;6124819;23;20021;-72
2021/07/14 08:40:27;;;;;;;15.68;12.48;;;;;;;;;;6126401;23;20422;-72
2021/07/14 08:43:01;;;;;;;17.50;13.30;;;;;;;;;;6125014;23;20009;-72
2021/07/14 08:45:26;;;;;;;20.40;12.48;;;;;;;;;;6126411;23;20006;-71
2021/07/14 08:47:52;;;;;;;20.23;13.13;;;;;;;;;;6126497;23;20057;-72
2021/07/14 08:50:19;;;;;;;21.17;12.57;;;;;;;;;;6124944;23;20029;-72
2021/07/14 08:52:47;;;;;;;16.83;13.07;;;;;;;;;;6126306;23;19998;-71
2021/07/14 08:55:13;;;;;;;22.52;14.18;;;;;;;;;;6126121;23;20001;-72
2021/07/14 08:57:39;;;;;;;19.35;12.20;;;;;;;;;;6125629;23;20025;-72
2021/07/14 09:00:06;;;;;;;17.30;13.00;;;;;;;;;;6124744;23;20009;-72
2021/07/14 09:02:32;;;;;;;18.90;12.75;;;;;;;;;;6126255;23;20005;-72
2021/07/14 09:04:57;;;;;;;18.65;13.20;;;;;;;;;;6126104;23;20010;-72
2021/07/14 09:07:23;;;;;;;17.13;12.63;;;;;;;;;;6126100;23;20008;-72
2021/07/14 09:09:49;;;;;;;17.92;12.18;;;;;;;;;;6126175;23;20037;-72
2021/07/14 09:12:14;;;;;;;17.55;12.77;;;;;;;;;;6126065;23;20430;-72
2021/07/14 09:14:42;;;;;;;16.13;12.90;;;;;;;;;;6126253;23;20037;-72
2021/07/14 09:17:17;;;;;;;17.95;12.90;;;;;;;;;;6124866;23;20001;-72
2021/07/14 09:19:42;;;;;;;13.95;11.65;;;;;;;;;;6126303;23;20339;-72
2021/07/14 09:22:18;;;;;;;17.80;12.52;;;;;;;;;;6124651;23;20006;-72
2021/07/14 09:24:43;;;;;;;14.73;11.45;;;;;;;;;;6126215;23;20057;-72
2021/07/14 09:27:15;;;;;;;18.40;11.75;;;;;;;;;;6126243;23;20006;-72
2021/07/14 09:29:41;;;;;;;16.15;12.27;;;;;;;;;;6124774;23;20462;-72
2021/07/14 09:32:08;;;;;;;16.05;11.32;;;;;;;;;;6126115;23;20001;-72
2021/07/14 09:34:33;;;;;;;18.02;11.52;;;;;;;;;;6124716;23;20077;-72
2021/07/14 09:37:01;;;;;;;20.52;11.88;;;;;;;;;;6127242;23;20532;-72
2021/07/14 09:39:40;;;;;;;19.75;11.55;;;;;;;;;;6127420;23;20013;-71
2021/07/14 09:42:12;;;;;;;14.07;11.38;;;;;;;;;;6126390;23;20431;-72
2021/07/14 09:44:45;;;;;;;19.83;11.73;;;;;;;;;;6126351;23;20333;-72
2021/07/14 09:47:22;;;;;;;13.77;9.95;;;;;;;;;;6127982;23;20331;-72
2021/07/14 09:49:48;;;;;;;11.65;9.88;;;;;;;;;;6127789;23;20002;-72
2021/07/14 09:52:15;;;;;;;12.63;9.77;;;;;;;;;;6127528;23;20095;-72
2021/07/14 09:54:41;;;;;;;11.07;9.55;;;;;;;;;;6126227;23;20009;-72
2021/07/14 09:57:10;;;;;;;12.55;9.85;;;;;;;;;;6127233;23;20006;-72
2021/07/14 09:59:36;;;;;;;12.60;9.60;;;;;;;;;;6127687;23;20016;-72
2021/07/14 10:02:01;;;;;;;11.52;9.75;;;;;;;;;;6127665;23;20014;-72
2021/07/14 10:04:30;;;;;;;14.70;9.75;;;;;;;;;;6127650;23;20053;-72
2021/07/14 10:07:08;;;;;;;11.23;9.52;;;;;;;;;;6127442;23;20001;-72
2021/07/14 10:09:34;;;;;;;14.00;10.10;;;;;;;;;;6127750;23;20103;-73
2021/07/14 10:12:18;;;;;;;12.60;10.05;;;;;;;;;;6127559;23;20000;-72
2021/07/14 10:14:43;;;;;;;14.25;9.65;;;;;;;;;;6127534;23;20030;-72
2021/07/14 10:17:08;;;;;;;15.98;10.25;;;;;;;;;;6126332;23;20001;-72
2021/07/14 10:19:34;;;;;;;12.00;9.98;;;;;;;;;;6126280;23;20013;-72
2021/07/14 10:22:00;;;;;;;13.15;10.32;;;;;;;;;;6127590;23;20318;-72
2021/07/14 10:24:25;;;;;;;13.95;10.13;;;;;;;;;;6127596;23;20315;-72
2021/07/14 10:26:53;;;;;;;10.50;9.40;;;;;;;;;;6127538;23;20041;-72
2021/07/14 10:29:19;;;;;;;11.57;10.13;;;;;;;;;;6127481;23;20002;-72
2021/07/14 10:31:47;;;;;;;12.55;9.98;;;;;;;;;;6127501;23;19994;-72
2021/07/14 10:34:14;;;;;;;10.60;9.63;;;;;;;;;;6126820;23;20084;-72
2021/07/14 10:36:41;;;;;;;10.75;9.68;;;;;;;;;;6101838;23;20044;-72
2021/07/14 10:39:14;;;;;;;10.95;9.82;;;;;;;;;;6127325;23;20014;-72
2021/07/14 10:41:41;;;;;;;10.77;9.68;;;;;;;;;;6101290;23;20002;-72
2021/07/14 10:44:06;;;;;;;9.63;8.57;;;;;;;;;;6127358;23;20045;-72
2021/07/14 10:46:33;;;;;;;10.05;8.65;;;;;;;;;;6127303;23;20018;-72
2021/07/14 10:49:03;;;;;;;10.13;9.05;;;;;;;;;;6101054;23;20119;-72
2021/07/14 10:51:30;;;;;;;11.52;9.60;;;;;;;;;;6127179;23;20077;-73
2021/07/14 10:54:02;;;;;;;10.55;9.25;;;;;;;;;;6127011;23;20002;-72
2021/07/14 10:56:28;;;;;;;10.95;9.23;;;;;;;;;;6127001;23;20118;-72
2021/07/14 10:58:54;;;;;;;10.63;9.52;;;;;;;;;;6101182;23;20089;-72
2021/07/14 11:01:39;;;;;;;13.43;10.25;;;;;;;;;;6126999;23;20009;-72
2021/07/14 11:04:05;;;;;;;10.57;9.63;;;;;;;;;;6125431;23;20006;-72
2021/07/14 11:06:30;;;;;;;12.27;10.50;;;;;;;;;;6126945;23;20327;-72
2021/07/14 11:08:56;;;;;;;12.88;10.65;;;;;;;;;;6127098;23;20017;-72
2021/07/14 11:11:22;;;;;;;11.63;10.23;;;;;;;;;;6127099;23;20427;-71
2021/07/14 11:13:50;;;;;;;11.52;10.18;;;;;;;;;;6125362;23;20342;-72
2021/07/14 11:16:23;;;;;;;11.90;10.35;;;;;;;;;;6126966;23;20020;-71
2021/07/14 11:18:59;;;;;;;12.43;11.07;;;;;;;;;;6126914;23;20089;-71
2021/07/14 11:21:43;;;;;;;13.57;10.93;;;;;;;;;;6126768;23;20057;-71
2021/07/14 11:24:09;;;;;;;13.15;11.50;;;;;;;;;;6125216;23;20330;-71
2021/07/14 11:26:34;;;;;;;15.35;13.75;;;;;;;;;;6125458;23;19998;-71
2021/07/14 11:29:13;;;;;;;14.77;13.23;;;;;;;;;;6126856;23;20012;-71
2021/07/14 11:31:42;;;;;;;15.27;13.52;;;;;;;;;;6126360;23;20033;-71
2021/07/14 11:34:26;;;;;;;15.07;13.52;;;;;;;;;;6126474;23;20010;-67
2021/07/14 11:36:52;;;;;;;17.23;13.68;;;;;;;;;;6126545;23;20312;-66
2021/07/14 11:39:28;;;;;;;15.80;14.18;;;;;;;;;;6125010;23;20080;-67
2021/07/14 11:42:13;;;;;;;15.52;14.13;;;;;;;;;;6126483;23;20009;-67
2021/07/14 11:44:39;;;;;;;15.70;14.07;;;;;;;;;;6126526;23;20013;-67
2021/07/14 11:47:30;;;;;;;17.40;13.75;;;;;;;;;;6126952;23;19998;-67
2021/07/14 11:49:56;;;;;;;16.33;13.57;;;;;;;;;;6123948;23;20006;-67
2021/07/14 11:52:40;;;;;;;17.42;14.75;;;;;;;;;;6126623;23;20006;-67
2021/07/14 11:55:24;;;;;;;17.83;13.40;;;;;;;;;;6126885;23;20002;-66
2021/07/14 11:57:58;;;;;;;18.23;13.90;;;;;;;;;;6126138;23;20316;-67
2021/07/14 12:00:31;;;;;;;17.27;13.63;;;;;;;;;;6126210;23;20304;-67
2021/07/14 12:03:00;;;;;;;17.52;14.43;;;;;;;;;;6124927;23;20096;-67
2021/07/14 12:05:32;;;;;;;15.70;14.13;;;;;;;;;;6126645;23;19998;-67
2021/07/14 12:08:13;;;;;;;17.55;13.95;;;;;;;;;;6126749;23;20338;-67
2021/07/14 12:10:40;;;;;;;19.02;15.30;;;;;;;;;;6126637;23;20006;-67
2021/07/14 12:13:06;;;;;;;18.00;14.40;;;;;;;;;;6126430;23;20005;-67
2021/07/14 12:15:44;;;;;;;21.10;15.70;;;;;;;;;;6126687;23;20002;-67
2021/07/14 12:18:10;;;;;;;16.35;13.65;;;;;;;;;;6126717;23;20002;-67
2021/07/14 12:20:36;;;;;;;20.40;13.85;;;;;;;;;;6126617;23;20045;-67
2021/07/14 12:23:12;;;;;;;17.65;13.50;;;;;;;;;;6126494;23;20009;-67
2021/07/14 12:25:38;;;;;;;17.13;13.65;;;;;;;;;;6126173;23;20010;-67
2021/07/14 12:28:08;;;;;;;17.02;14.25;;;;;;;;;;6126348;23;20065;-67
2021/07/14 12:30:36;;;;;;;15.27;13.63;;;;;;;;;;6126543;23;20010;-67
2021/07/14 12:33:03;;;;;;;19.08;13.73;;;;;;;;;;6126263;23;20013;-67
2021/07/14 12:35:30;;;;;;;15.20;13.60;;;;;;;;;;6126319;23;20110;-67
2021/07/14 12:38:00;;;;;;;15.63;13.20;;;;;;;;;;6126444;23;20326;-67
2021/07/14 12:40:27;;;;;;;19.77;13.93;;;;;;;;;;6126410;23;20016;-67
2021/07/14 12:42:54;;;;;;;19.83;14.18;;;;;;;;;;6124747;23;20021;-67
2021/07/14 12:45:30;;;;;;;18.17;14.07;;;;;;;;;;6126412;23;20089;-72
2021/07/14 12:47:56;;;;;;;17.05;13.88;;;;;;;;;;6126387;23;20010;-72
2021/07/14 12:50:22;;;;;;;16.55;13.93;;;;;;;;;;6100219;23;19998;-70
2021/07/14 12:52:52;;;;;;;15.05;13.38;;;;;;;;;;6126087;23;20060;-69
2021/07/14 12:55:20;;;;;;;15.27;13.68;;;;;;;;;;6126467;23;20002;-69
2021/07/14 12:57:46;;;;;;;15.98;14.30;;;;;;;;;;6125827;23;20069;-69
2021/07/14 13:00:12;;;;;;;16.02;13.23;;;;;;;;;;6126312;23;20010;-69
2021/07/14 13:02:39;;;;;;;16.67;14.43;;;;;;;;;;6126296;23;20017;-69
2021/07/14 13:05:06;;;;;;;15.48;13.85;;;;;;;;;;6126368;23;20062;-69
2021/07/14 13:07:32;;;;;;;17.33;12.70;;;;;;;;;;6126219;23;20330;-69
2021/07/14 13:10:01;;;;;;;15.95;14.25;;;;;;;;;;6126380;23;20010;-69
2021/07/14 13:12:29;;;;;;;17.67;14.23;;;;;;;;;;6127604;23;20402;-69
2021/07/14 13:14:55;;;;;;;21.15;14.63;;;;;;;;;;6128123;23;20006;-69
2021/07/14 13:17:28;;;;;;;17.63;14.98;;;;;;;;;;6126517;23;20327;-69
2021/07/14 13:20:04;;;;;;;18.30;14.55;;;;;;;;;;6127482;23;20009;-69
2021/07/14 13:22:30;;;;;;;16.98;14.45;;;;;;;;;;6128200;23;20010;-67
2021/07/14 13:25:02;;;;;;;20.30;16.25;;;;;;;;;;6128364;23;20009;-68
2021/07/14 13:27:30;;;;;;;25.55;16.90;;;;;;;;;;6128063;23;20382;-68
2021/07/14 13:29:56;;;;;;;19.17;15.05;;;;;;;;;;6102059;23;20006;-68
2021/07/14 13:32:22;;;;;;;17.95;14.70;;;;;;;;;;6126325;23;20064;-68
2021/07/14 13:34:50;;;;;;;16.95;14.75;;;;;;;;;;6128062;23;20387;-68
2021/07/14 13:37:25;;;;;;;19.20;14.75;;;;;;;;;;6127979;23;20434;-68
2021/07/14 13:39:52;;;;;;;19.50;15.65;;;;;;;;;;6128053;23;20013;-68
2021/07/14 13:42:18;;;;;;;22.75;16.15;;;;;;;;;;6102354;23;20049;-67
2021/07/14 13:44:44;;;;;;;19.15;16.20;;;;;;;;;;6127645;23;20339;-68
2021/07/14 13:47:14;;;;;;;20.50;15.68;;;;;;;;;;6127016;23;19997;-68
2021/07/14 13:49:41;;;;;;;;;;;;;;;;;;6126940;23;20016;-68
2021/07/14 13:52:07;;;;;;;18.50;16.05;;;;;;;;;;6127682;23;19901;-68
2021/07/14 13:54:34;;;;;;;19.55;16.25;;;;;;;;;;6127727;23;20017;-68
2021/07/14 13:57:00;;;;;;;17.42;15.55;;;;;;;;;;6127201;23;20014;-68
2021/07/14 13:59:31;;;;;;;18.58;16.80;;;;;;;;;;6128013;23;20029;-68
2021/07/14 14:01:57;;;;;;;17.83;15.20;;;;;;;;;;6127820;23;20006;-69
2021/07/14 14:04:23;;;;;;;23.90;16.80;;;;;;;;;;6126312;23;20480;-69
2021/07/14 14:06:49;;;;;;;19.73;15.27;;;;;;;;;;6127727;23;20016;-69
2021/07/14 14:09:19;;;;;;;20.83;16.85;;;;;;;;;;6126034;23;20029;-69
2021/07/14 14:11:45;;;;;;;20.15;16.70;;;;;;;;;;6126118;23;20006;-69
2021/07/14 14:14:11;;;;;;;20.17;16.33;;;;;;;;;;6127743;23;20013;-69
2021/07/14 14:16:38;;;;;;;19.40;17.33;;;;;;;;;;6127731;23;20033;-69
2021/07/14 14:19:07;;;;;;;20.58;17.58;;;;;;;;;;6127552;23;20073;-68
2021/07/14 14:21:33;;;;;;;25.67;18.87;;;;;;;;;;6127698;23;20010;-68
2021/07/14 14:24:03;;;;;;;25.90;17.90;;;;;;;;;;6127125;23;20085;-68
2021/07/14 14:26:29;;;;;;;19.75;17.65;;;;;;;;;;6127620;23;20426;-69
2021/07/14 14:28:55;;;;;;;23.88;17.35;;;;;;;;;;6127300;23;20077;-69
2021/07/14 14:31:20;;;;;;;22.15;17.27;;;;;;;;;;6127394;23;20423;-69
2021/07/14 14:33:52;;;;;;;17.92;14.48;;;;;;;;;;6125889;23;20024;-68